sensor_id;sensor_type;location;lat;lon;timestamp;pressure;altitude;pressure_sealevel;temperature;humidity
10060;BME280;5069;49.306;8.636;2023-03-20T00:00:12;100761.09;;;10.76;100.00
10060;BME280;5069;49.306;8.636;2023-03-20T00:03:17;100771.34;;;10.85;100.00
10060;BME280;5069;49.306;8.636;2023-03-20T00:06:23;100773.09;;;10.86;100.00
10060;BME280;5069;49.306;8.636;2023-03-20T00:09:24;100767.88;;;10.83;100.00
10060;BME280;5069;49.306;8.636;2023-03-20T00:12:26;100776.63;;;10.85;100.00
10060;BME280;5069;49.306;8.636;2023-03-20T00:15:35;100780.16;;;10.84;100.00
10060;BME280;5069;49.306;8.636;2023-03-20T00:18:38;100781.03;;;10.85;100.00
10060;BME280;5069;49.306;8.636;2023-03-20T00:21:43;100777.53;;;10.84;100.00
10060;BME280;5069;49.306;8.636;2023-03-20T00:24:46;100776.63;;;10.85;100.00
10060;BME280;5069;49.306;8.636;2023-03-20T00:27:47;100773.00;;;10.89;100.00
10060;BME280;5069;49.306;8.636;2023-03-20T00:30:50;100780.09;;;10.87;100.00
10060;BME280;5069;49.306;8.636;2023-03-20T00:33:54;100775.75;;;10.85;100.00
10060;BME280;5069;49.306;8.636;2023-03-20T00:36:56;100769.72;;;10.81;100.00
10060;BME280;5069;49.306;8.636;2023-03-20T00:39:58;100773.16;;;10.83;100.00
10060;BME280;5069;49.306;8.636;2023-03-20T00:43:01;100775.72;;;10.86;100.00
10060;BME280;5069;49.306;8.636;2023-03-20T00:46:03;100782.00;;;10.82;100.00
10060;BME280;5069;49.306;8.636;2023-03-20T00:49:04;100775.94;;;10.78;100.00
10060;BME280;5069;49.306;8.636;2023-03-20T00:52:08;100776.97;;;10.73;100.00
10060;BME280;5069;49.306;8.636;2023-03-20T00:55:12;100778.72;;;10.74;100.00
10060;BME280;5069;49.306;8.636;2023-03-20T00:58:14;100779.44;;;10.79;100.00
10060;BME280;5069;49.306;8.636;2023-03-20T01:01:16;100778.53;;;10.80;100.00
10060;BME280;5069;49.306;8.636;2023-03-20T01:04:19;100775.88;;;10.82;100.00
10060;BME280;5069;49.306;8.636;2023-03-20T01:07:20;100774.09;;;10.82;100.00
10060;BME280;5069;49.306;8.636;2023-03-20T01:10:28;100773.13;;;10.85;100.00
10060;BME280;5069;49.306;8.636;2023-03-20T01:13:31;100776.63;;;10.85;100.00
10060;BME280;5069;49.306;8.636;2023-03-20T01:16:32;100767.81;;;10.86;100.00
10060;BME280;5069;49.306;8.636;2023-03-20T01:19:34;100767.88;;;10.83;100.00
10060;BME280;5069;49.306;8.636;2023-03-20T01:22:36;100772.28;;;10.83;100.00
10060;BME280;5069;49.306;8.636;2023-03-20T01:25:38;100775.81;;;10.83;100.00
10060;BME280;5069;49.306;8.636;2023-03-20T01:28:39;100775.06;;;10.78;100.00
10060;BME280;5069;49.306;8.636;2023-03-20T01:31:41;100775.88;;;10.82;100.00
10060;BME280;5069;49.306;8.636;2023-03-20T01:34:42;100775.16;;;10.75;100.00
10060;BME280;5069;49.306;8.636;2023-03-20T01:37:44;100785.72;;;10.75;100.00
10060;BME280;5069;49.306;8.636;2023-03-20T01:40:52;100783.25;;;10.69;100.00
10060;BME280;5069;49.306;8.636;2023-03-20T01:43:56;100781.53;;;10.66;100.00
10060;BME280;5069;49.306;8.636;2023-03-20T01:46:58;100784.75;;;10.77;100.00
10060;BME280;5069;49.306;8.636;2023-03-20T01:50:22;100791.19;;;10.67;100.00
10060;BME280;5069;49.306;8.636;2023-03-20T01:53:28;100788.66;;;10.64;100.00
10060;BME280;5069;49.306;8.636;2023-03-20T01:56:38;100792.31;;;10.59;100.00
10060;BME280;5069;49.306;8.636;2023-03-20T02:00:10;100793.06;;;10.64;100.00
10060;BME280;5069;49.306;8.636;2023-03-20T02:03:17;100796.59;;;10.63;100.00
10060;BME280;5069;49.306;8.636;2023-03-20T02:06:49;100806.25;;;10.64;100.00
10060;BME280;5069;49.306;8.636;2023-03-20T02:09:56;100805.53;;;10.57;100.00
10060;BME280;5069;49.306;8.636;2023-03-20T02:13:09;100806.44;;;10.56;100.00
10060;BME280;5069;49.306;8.636;2023-03-20T02:16:18;100802.00;;;10.58;100.00
10060;BME280;5069;49.306;8.636;2023-03-20T02:30:37;100791.41;;;10.60;100.00
10060;BME280;5069;49.306;8.636;2023-03-20T02:40:32;100799.31;;;10.60;100.00
10060;BME280;5069;49.306;8.636;2023-03-20T02:43:46;100805.66;;;10.53;100.00
10060;BME280;5069;49.306;8.636;2023-03-20T02:47:44;100811.69;;;10.58;100.00
10060;BME280;5069;49.306;8.636;2023-03-20T02:50:46;100805.66;;;10.53;100.00
10060;BME280;5069;49.306;8.636;2023-03-20T02:53:52;100803.59;;;10.64;100.00
10060;BME280;5069;49.306;8.636;2023-03-20T02:57:10;100799.28;;;10.61;100.00
10060;BME280;5069;49.306;8.636;2023-03-20T03:00:25;100799.53;;;10.52;100.00
10060;BME280;5069;49.306;8.636;2023-03-20T03:03:35;100797.84;;;10.48;100.00
10060;BME280;5069;49.306;8.636;2023-03-20T03:06:41;100795.34;;;10.44;100.00
10060;BME280;5069;49.306;8.636;2023-03-20T03:09:50;100805.84;;;10.47;100.00
10060;BME280;5069;49.306;8.636;2023-03-20T03:12:53;100801.34;;;10.50;100.00
10060;BME280;5069;49.306;8.636;2023-03-20T03:15:59;100809.22;;;10.52;100.00
10060;BME280;5069;49.306;8.636;2023-03-20T03:19:08;100804.84;;;10.51;100.00
10060;BME280;5069;49.306;8.636;2023-03-20T03:22:11;100806.53;;;10.53;100.00
10060;BME280;5069;49.306;8.636;2023-03-20T03:25:12;100812.84;;;10.48;100.00
10060;BME280;5069;49.306;8.636;2023-03-20T03:28:22;100817.91;;;10.54;100.00
10060;BME280;5069;49.306;8.636;2023-03-20T03:31:27;100811.81;;;10.53;100.00
10060;BME280;5069;49.306;8.636;2023-03-20T03:34:30;100815.13;;;10.60;100.00
10060;BME280;5069;49.306;8.636;2023-03-20T03:38:32;100816.13;;;10.56;100.00
10060;BME280;5069;49.306;8.636;2023-03-20T03:41:21;100817.91;;;10.54;100.00
10060;BME280;5069;49.306;8.636;2023-03-20T03:44:30;100814.53;;;10.49;100.00
10060;BME280;5069;49.306;8.636;2023-03-20T03:48:15;100810.22;;;10.46;100.00
10060;BME280;5069;49.306;8.636;2023-03-20T03:51:23;100802.28;;;10.48;100.00
10060;BME280;5069;49.306;8.636;2023-03-20T03:55:19;100800.50;;;10.48;100.00
10060;BME280;5069;49.306;8.636;2023-03-20T03:58:07;100800.63;;;10.44;100.00
10060;BME280;5069;49.306;8.636;2023-03-20T04:01:11;100810.41;;;10.40;100.00
10060;BME280;5069;49.306;8.636;2023-03-20T04:04:14;100805.03;;;10.43;100.00
10060;BME280;5069;49.306;8.636;2023-03-20T04:07:16;100807.78;;;10.39;100.00
10060;BME280;5069;49.306;8.636;2023-03-20T04:10:18;100811.25;;;10.41;100.00
10060;BME280;5069;49.306;8.636;2023-03-20T04:13:19;100813.09;;;10.37;100.00
10060;BME280;5069;49.306;8.636;2023-03-20T04:16:23;100822.66;;;10.41;100.00
10060;BME280;5069;49.306;8.636;2023-03-20T04:19:24;100822.53;;;10.46;100.00
10060;BME280;5069;49.306;8.636;2023-03-20T04:22:26;100833.94;;;10.48;100.00
10060;BME280;5069;49.306;8.636;2023-03-20T04:25:31;100828.84;;;10.40;100.00
10060;BME280;5069;49.306;8.636;2023-03-20T04:28:32;100839.38;;;10.40;100.00
10060;BME280;5069;49.306;8.636;2023-03-20T04:31:54;100844.69;;;10.39;100.00
10060;BME280;5069;49.306;8.636;2023-03-20T04:35:12;100841.16;;;10.40;100.00
10060;BME280;5069;49.306;8.636;2023-03-20T04:38:25;100844.78;;;10.35;100.00
10060;BME280;5069;49.306;8.636;2023-03-20T04:41:28;100849.22;;;10.33;100.00
10060;BME280;5069;49.306;8.636;2023-03-20T04:44:31;100849.97;;;10.39;100.00
10060;BME280;5069;49.306;8.636;2023-03-20T04:47:35;100844.84;;;10.32;100.00
10060;BME280;5069;49.306;8.636;2023-03-20T04:50:38;100844.06;;;10.29;100.00
10060;BME280;5069;49.306;8.636;2023-03-20T04:53:39;100835.28;;;10.28;100.00
10060;BME280;5069;49.306;8.636;2023-03-20T04:56:41;100837.78;;;10.34;100.00
10060;BME280;5069;49.306;8.636;2023-03-20T04:59:54;100836.03;;;10.33;100.00
10060;BME280;5069;49.306;8.636;2023-03-20T05:02:55;100837.75;;;10.36;100.00
10060;BME280;5069;49.306;8.636;2023-03-20T05:05:57;100839.56;;;10.32;100.00
10060;BME280;5069;49.306;8.636;2023-03-20T05:08:59;100838.00;;;10.25;100.00
10060;BME280;5069;49.306;8.636;2023-03-20T05:12:04;100848.53;;;10.25;100.00
10060;BME280;5069;49.306;8.636;2023-03-20T05:15:32;100850.25;;;10.26;100.00
10060;BME280;5069;49.306;8.636;2023-03-20T05:19:01;100855.38;;;10.32;100.00
10060;BME280;5069;49.306;8.636;2023-03-20T05:22:38;100851.84;;;10.33;100.00
10060;BME280;5069;49.306;8.636;2023-03-20T05:25:47;100847.56;;;10.29;100.00
10060;BME280;5069;49.306;8.636;2023-03-20T05:29:09;100851.06;;;10.30;100.00
10060;BME280;5069;49.306;8.636;2023-03-20T05:32:29;100846.00;;;10.21;100.00
10060;BME280;5069;49.306;8.636;2023-03-20T05:35:53;100856.38;;;10.28;100.00
10060;BME280;5069;49.306;8.636;2023-03-20T05:39:06;100861.63;;;10.30;100.00
10060;BME280;5069;49.306;8.636;2023-03-20T05:42:30;100865.19;;;10.26;100.00
10060;BME280;5069;49.306;8.636;2023-03-20T05:45:55;100873.03;;;10.30;100.00
10060;BME280;5069;49.306;8.636;2023-03-20T05:49:20;100861.63;;;10.30;100.00
10060;BME280;5069;49.306;8.636;2023-03-20T05:52:48;100865.91;;;10.32;100.00
10060;BME280;5069;49.306;8.636;2023-03-20T05:56:09;100857.22;;;10.30;100.00
10060;BME280;5069;49.306;8.636;2023-03-20T05:59:14;100858.81;;;10.36;100.00
10060;BME280;5069;49.306;8.636;2023-03-20T06:02:25;100860.50;;;10.39;100.00
10060;BME280;5069;49.306;8.636;2023-03-20T06:05:36;100854.47;;;10.33;100.00
10060;BME280;5069;49.306;8.636;2023-03-20T06:08:38;100857.59;;;10.49;100.00
10060;BME280;5069;49.306;8.636;2023-03-20T06:11:40;100853.41;;;10.42;100.00
10060;BME280;5069;49.306;8.636;2023-03-20T06:14:42;100855.75;;;10.53;100.00
10060;BME280;5069;49.306;8.636;2023-03-20T06:17:45;100854.50;;;10.66;100.00
10060;BME280;5069;49.306;8.636;2023-03-20T06:20:52;100861.94;;;10.52;100.00
10060;BME280;5069;49.306;8.636;2023-03-20T06:23:53;100872.47;;;10.52;100.00
10060;BME280;5069;49.306;8.636;2023-03-20T06:26:57;100881.03;;;10.60;100.00
10060;BME280;5069;49.306;8.636;2023-03-20T06:30:00;100883.50;;;10.66;100.00
10060;BME280;5069;49.306;8.636;2023-03-20T06:33:06;100897.00;;;10.54;100.00
10060;BME280;5069;49.306;8.636;2023-03-20T06:36:24;100892.72;;;10.50;100.00
10060;BME280;5069;49.306;8.636;2023-03-20T06:39:32;100898.88;;;10.49;100.00
10060;BME280;5069;49.306;8.636;2023-03-20T06:42:35;100894.50;;;10.49;100.00
10060;BME280;5069;49.306;8.636;2023-03-20T06:45:38;100889.28;;;10.48;100.00
10060;BME280;5069;49.306;8.636;2023-03-20T06:48:50;100886.56;;;10.49;100.00
10060;BME280;5069;49.306;8.636;2023-03-20T06:51:52;100903.94;;;10.58;100.00
10060;BME280;5069;49.306;8.636;2023-03-20T06:54:58;100905.69;;;10.59;100.00
10060;BME280;5069;49.306;8.636;2023-03-20T06:57:59;100903.78;;;10.64;100.00
10060;BME280;5069;49.306;8.636;2023-03-20T07:01:08;100902.78;;;10.69;100.00
10060;BME280;5069;49.306;8.636;2023-03-20T07:04:10;100915.81;;;10.74;100.00
10060;BME280;5069;49.306;8.636;2023-03-20T07:07:19;100923.22;;;10.60;100.00
10060;BME280;5069;49.306;8.636;2023-03-20T07:10:21;100919.53;;;10.67;100.00
10060;BME280;5069;49.306;8.636;2023-03-20T07:13:26;100917.78;;;10.66;100.00
10060;BME280;5069;49.306;8.636;2023-03-20T07:16:29;100930.16;;;10.64;100.00
10060;BME280;5069;49.306;8.636;2023-03-20T07:19:31;100918.03;;;10.57;100.00
10060;BME280;5069;49.306;8.636;2023-03-20T07:22:33;100924.88;;;10.64;100.00
10060;BME280;5069;49.306;8.636;2023-03-20T07:25:49;100918.38;;;10.77;100.00
10060;BME280;5069;49.306;8.636;2023-03-20T07:28:52;100919.31;;;10.76;100.00
10060;BME280;5069;49.306;8.636;2023-03-20T07:31:57;100919.31;;;10.76;100.00
10060;BME280;5069;49.306;8.636;2023-03-20T07:35:06;100922.84;;;10.75;100.00
10060;BME280;5069;49.306;8.636;2023-03-20T07:38:07;100905.28;;;10.74;100.00
10060;BME280;5069;49.306;8.636;2023-03-20T07:41:18;100912.28;;;10.75;100.00
10060;BME280;5069;49.306;8.636;2023-03-20T07:44:31;100914.72;;;10.83;100.00
10060;BME280;5069;49.306;8.636;2023-03-20T07:47:34;100910.31;;;10.83;100.00
10060;BME280;5069;49.306;8.636;2023-03-20T07:50:38;100910.13;;;10.89;100.00
10060;BME280;5069;49.306;8.636;2023-03-20T07:53:40;100914.31;;;10.98;100.00
10060;BME280;5069;49.306;8.636;2023-03-20T07:56:42;100911.44;;;11.05;100.00
10060;BME280;5069;49.306;8.636;2023-03-20T07:59:44;100913.28;;;11.03;100.00
10060;BME280;5069;49.306;8.636;2023-03-20T08:02:46;100913.94;;;11.11;100.00
10060;BME280;5069;49.306;8.636;2023-03-20T08:05:47;100914.03;;;11.08;100.00
10060;BME280;5069;49.306;8.636;2023-03-20T08:08:49;100920.19;;;11.07;100.00
10060;BME280;5069;49.306;8.636;2023-03-20T08:11:52;100925.56;;;11.04;100.00
10060;BME280;5069;49.306;8.636;2023-03-20T08:14:54;100923.28;;;10.91;100.00
10060;BME280;5069;49.306;8.636;2023-03-20T08:17:55;100922.72;;;11.12;100.00
10060;BME280;5069;49.306;8.636;2023-03-20T08:20:59;100930.69;;;11.10;100.00
10060;BME280;5069;49.306;8.636;2023-03-20T08:24:00;100930.09;;;10.99;100.00
10060;BME280;5069;49.306;8.636;2023-03-20T08:27:02;100936.34;;;10.95;100.00
10060;BME280;5069;49.306;8.636;2023-03-20T08:30:04;100936.44;;;10.92;100.00
10060;BME280;5069;49.306;8.636;2023-03-20T08:33:05;100934.59;;;10.96;100.00
10060;BME280;5069;49.306;8.636;2023-03-20T08:36:07;100944.84;;;11.06;100.00
10060;BME280;5069;49.306;8.636;2023-03-20T08:39:09;100942.94;;;11.11;100.00
10060;BME280;5069;49.306;8.636;2023-03-20T08:42:11;100946.69;;;11.04;100.00
10060;BME280;5069;49.306;8.636;2023-03-20T08:45:12;100953.34;;;11.17;100.00
10060;BME280;5069;49.306;8.636;2023-03-20T08:48:13;100936.72;;;11.15;100.00
10060;BME280;5069;49.306;8.636;2023-03-20T08:51:15;100945.41;;;11.19;100.00
10060;BME280;5069;49.306;8.636;2023-03-20T08:54:16;100942.88;;;11.14;100.00
10060;BME280;5069;49.306;8.636;2023-03-20T08:57:18;100949.81;;;11.18;100.00
10060;BME280;5069;49.306;8.636;2023-03-20T09:00:20;100949.63;;;11.25;100.00
10060;BME280;5069;49.306;8.636;2023-03-20T09:03:22;100964.56;;;11.26;100.00
10060;BME280;5069;49.306;8.636;2023-03-20T09:06:24;100965.47;;;11.25;100.00
10060;BME280;5069;49.306;8.636;2023-03-20T09:09:26;100964.59;;;11.24;100.00
10060;BME280;5069;49.306;8.636;2023-03-20T09:12:29;100973.78;;;11.42;100.00
10060;BME280;5069;49.306;8.636;2023-03-20T09:15:33;100979.91;;;11.44;100.00
10060;BME280;5069;49.306;8.636;2023-03-20T09:18:37;100978.13;;;11.44;100.00
10060;BME280;5069;49.306;8.636;2023-03-20T09:21:38;100987.09;;;11.39;100.00
10060;BME280;5069;49.306;8.636;2023-03-20T09:24:40;100976.56;;;11.37;100.00
10060;BME280;5069;49.306;8.636;2023-03-20T09:27:42;100983.78;;;11.31;100.00
10060;BME280;5069;49.306;8.636;2023-03-20T09:30:43;100984.06;;;11.20;100.00
10060;BME280;5069;49.306;8.636;2023-03-20T09:33:46;100990.09;;;11.25;100.00
10060;BME280;5069;49.306;8.636;2023-03-20T09:36:47;100997.06;;;11.28;100.00
10060;BME280;5069;49.306;8.636;2023-03-20T09:39:49;100992.69;;;11.27;100.00
10060;BME280;5069;49.306;8.636;2023-03-20T09:52:56;101005.38;;;11.45;100.00
10060;BME280;5069;49.306;8.636;2023-03-20T09:55:59;101007.75;;;11.55;100.00
10060;BME280;5069;49.306;8.636;2023-03-20T09:59:03;101005.09;;;11.55;100.00
10060;BME280;5069;49.306;8.636;2023-03-20T10:02:12;101001.44;;;11.61;100.00
10060;BME280;5069;49.306;8.636;2023-03-20T10:05:25;100994.41;;;11.60;100.00
10060;BME280;5069;49.306;8.636;2023-03-20T10:08:37;100990.44;;;11.76;100.00
10060;BME280;5069;49.306;8.636;2023-03-20T10:15:18;100994.84;;;12.07;100.00
10060;BME280;5069;49.306;8.636;2023-03-20T10:18:25;100995.31;;;12.19;100.00
10060;BME280;5069;49.306;8.636;2023-03-20T10:21:41;100998.78;;;12.49;98.80
10060;BME280;5069;49.306;8.636;2023-03-20T10:24:48;101001.53;;;12.72;97.88
10060;BME280;5069;49.306;8.636;2023-03-20T10:27:57;100998.69;;;12.78;95.10
10060;BME280;5069;49.306;8.636;2023-03-20T10:31:26;101001.88;;;12.63;96.12
10060;BME280;5069;49.306;8.636;2023-03-20T10:34:43;100992.78;;;12.70;96.56
10060;BME280;5069;49.306;8.636;2023-03-20T10:38:16;100990.16;;;12.97;93.76
10060;BME280;5069;49.306;8.636;2023-03-20T10:41:28;100981.06;;;13.30;89.56
10060;BME280;5069;49.306;8.636;2023-03-20T10:44:39;100975.66;;;13.58;86.92
10060;BME280;5069;49.306;8.636;2023-03-20T10:47:44;100976.47;;;13.60;85.25
10060;BME280;5069;49.306;8.636;2023-03-20T10:50:58;100975.72;;;13.80;83.49
10060;BME280;5069;49.306;8.636;2023-03-20T10:54:03;100967.75;;;13.80;80.35
10060;BME280;5069;49.306;8.636;2023-03-20T10:57:13;100971.63;;;13.94;78.25
10060;BME280;5069;49.306;8.636;2023-03-20T11:00:21;100968.34;;;13.64;78.26
10060;BME280;5069;49.306;8.636;2023-03-20T11:03:26;100969.31;;;13.62;79.26
10060;BME280;5069;49.306;8.636;2023-03-20T11:06:38;100969.84;;;13.72;77.46
10060;BME280;5069;49.306;8.636;2023-03-20T11:09:42;100970.63;;;13.97;75.98
10060;BME280;5069;49.306;8.636;2023-03-20T11:12:48;100967.88;;;14.00;76.19
10060;BME280;5069;49.306;8.636;2023-03-20T11:15:51;100966.44;;;13.91;73.51
10060;BME280;5069;49.306;8.636;2023-03-20T11:18:53;100969.28;;;14.08;73.42
10060;BME280;5069;49.306;8.636;2023-03-20T11:21:56;100960.03;;;13.97;72.75
10060;BME280;5069;49.306;8.636;2023-03-20T11:25:00;100962.59;;;13.77;72.43
10060;BME280;5069;49.306;8.636;2023-03-20T11:28:29;100960.91;;;13.97;70.61
10060;BME280;5069;49.306;8.636;2023-03-20T11:31:38;100953.28;;;14.12;67.48
10060;BME280;5069;49.306;8.636;2023-03-20T11:34:41;100958.81;;;14.05;67.62
10060;BME280;5069;49.306;8.636;2023-03-20T11:37:45;100955.34;;;14.03;67.26
10060;BME280;5069;49.306;8.636;2023-03-20T11:40:48;100940.63;;;14.18;68.32
10060;BME280;5069;49.306;8.636;2023-03-20T11:43:52;100943.81;;;14.50;66.02
10060;BME280;5069;49.306;8.636;2023-03-20T11:47:02;100933.41;;;14.45;64.98
10060;BME280;5069;49.306;8.636;2023-03-20T11:50:12;100931.75;;;14.19;65.77
10060;BME280;5069;49.306;8.636;2023-03-20T11:53:28;100939.69;;;14.19;66.00
10060;BME280;5069;49.306;8.636;2023-03-20T11:56:32;100932.94;;;14.34;65.72
10060;BME280;5069;49.306;8.636;2023-03-20T11:59:34;100927.19;;;14.46;65.68
10060;BME280;5069;49.306;8.636;2023-03-20T12:02:40;100925.28;;;14.26;65.73
10060;BME280;5069;49.306;8.636;2023-03-20T12:05:42;100933.91;;;14.31;65.90
10060;BME280;5069;49.306;8.636;2023-03-20T12:08:50;100921.94;;;14.44;65.86
10060;BME280;5069;49.306;8.636;2023-03-20T12:11:57;100921.41;;;14.57;66.41
10060;BME280;5069;49.306;8.636;2023-03-20T12:22:00;100914.16;;;14.40;65.15
10060;BME280;5069;49.306;8.636;2023-03-20T12:25:24;100916.41;;;14.27;64.97
10060;BME280;5069;49.306;8.636;2023-03-20T12:32:59;100902.84;;;14.57;65.11
10060;BME280;5069;49.306;8.636;2023-03-20T12:35:37;100888.59;;;14.79;65.38
10060;BME280;5069;49.306;8.636;2023-03-20T12:38:42;100882.22;;;14.83;63.12
10060;BME280;5069;49.306;8.636;2023-03-20T12:45:38;100877.34;;;14.53;60.81
10060;BME280;5069;49.306;8.636;2023-03-20T12:49:49;100875.91;;;14.66;60.64
10060;BME280;5069;49.306;8.636;2023-03-20T12:59:23;100867.91;;;15.26;57.06
10060;BME280;5069;49.306;8.636;2023-03-20T13:02:31;100867.69;;;15.12;56.50
10060;BME280;5069;49.306;8.636;2023-03-20T13:08:45;100859.06;;;15.07;56.29
10060;BME280;5069;49.306;8.636;2023-03-20T13:15:12;100844.31;;;15.00;54.71
10060;BME280;5069;49.306;8.636;2023-03-20T13:18:24;100851.75;;;15.12;54.23
10060;BME280;5069;49.306;8.636;2023-03-20T13:21:55;100844.66;;;15.32;54.41
10060;BME280;5069;49.306;8.636;2023-03-20T13:25:07;100838.63;;;15.28;54.00
10060;BME280;5069;49.306;8.636;2023-03-20T13:28:40;100839.22;;;15.35;53.78
10060;BME280;5069;49.306;8.636;2023-03-20T13:31:55;100843.16;;;15.45;53.77
10060;BME280;5069;49.306;8.636;2023-03-20T13:38:22;100840.88;;;15.37;53.50
10060;BME280;5069;49.306;8.636;2023-03-20T13:41:25;100831.84;;;15.21;54.11
10060;BME280;5069;49.306;8.636;2023-03-20T13:44:28;100829.38;;;15.37;53.84
10060;BME280;5069;49.306;8.636;2023-03-20T13:47:32;100826.84;;;15.34;54.34
10060;BME280;5069;49.306;8.636;2023-03-20T13:50:44;100828.56;;;15.35;53.11
10060;BME280;5069;49.306;8.636;2023-03-20T13:57:47;100822.13;;;15.40;54.01
10060;BME280;5069;49.306;8.636;2023-03-20T14:04:15;100812.94;;;15.28;53.72
10060;BME280;5069;49.306;8.636;2023-03-20T14:07:32;100807.50;;;15.32;53.59
10060;BME280;5069;49.306;8.636;2023-03-20T14:10:35;100808.06;;;15.19;53.69
10060;BME280;5069;49.306;8.636;2023-03-20T14:13:38;100799.88;;;15.24;53.71
10060;BME280;5069;49.306;8.636;2023-03-20T14:16:40;100801.72;;;15.22;53.67
10060;BME280;5069;49.306;8.636;2023-03-20T14:19:42;100803.75;;;15.36;53.27
10060;BME280;5069;49.306;8.636;2023-03-20T14:22:44;100802.28;;;15.28;53.91
10060;BME280;5069;49.306;8.636;2023-03-20T14:25:47;100805.03;;;15.08;53.46
10060;BME280;5069;49.306;8.636;2023-03-20T14:28:59;100793.22;;;14.95;52.70
10060;BME280;5069;49.306;8.636;2023-03-20T14:32:04;100802.53;;;14.85;52.93
10060;BME280;5069;49.306;8.636;2023-03-20T14:38:19;100796.56;;;15.19;53.18
10060;BME280;5069;49.306;8.636;2023-03-20T14:41:36;100800.75;;;15.04;52.31
10060;BME280;5069;49.306;8.636;2023-03-20T14:48:34;100805.19;;;15.24;47.24
10060;BME280;5069;49.306;8.636;2023-03-20T14:51:44;100794.56;;;15.43;46.71
10060;BME280;5069;49.306;8.636;2023-03-20T14:54:52;100795.47;;;15.79;45.91
10060;BME280;5069;49.306;8.636;2023-03-20T14:57:56;100786.72;;;15.77;45.10
10060;BME280;5069;49.306;8.636;2023-03-20T15:01:03;100799.50;;;15.69;45.14
10060;BME280;5069;49.306;8.636;2023-03-20T15:04:08;100785.47;;;15.84;44.95
10060;BME280;5069;49.306;8.636;2023-03-20T15:07:22;100786.75;;;15.94;44.84
10060;BME280;5069;49.306;8.636;2023-03-20T15:10:27;100787.75;;;15.92;45.54
10060;BME280;5069;49.306;8.636;2023-03-20T15:13:29;100798.63;;;15.87;44.42
10060;BME280;5069;49.306;8.636;2023-03-20T15:16:33;100795.19;;;15.48;44.92
10060;BME280;5069;49.306;8.636;2023-03-20T15:19:38;100803.53;;;15.40;45.26
10060;BME280;5069;49.306;8.636;2023-03-20T15:22:52;100804.31;;;15.23;46.42
10060;BME280;5069;49.306;8.636;2023-03-20T15:25:58;100801.72;;;15.03;47.10
10060;BME280;5069;49.306;8.636;2023-03-20T15:29:12;100800.00;;;15.02;46.90
10060;BME280;5069;49.306;8.636;2023-03-20T15:32:16;100804.44;;;15.02;47.11
10060;BME280;5069;49.306;8.636;2023-03-20T15:35:20;100807.75;;;15.07;47.29
10060;BME280;5069;49.306;8.636;2023-03-20T15:38:28;100810.88;;;14.96;47.35
10060;BME280;5069;49.306;8.636;2023-03-20T15:41:33;100807.38;;;14.75;47.48
10060;BME280;5069;49.306;8.636;2023-03-20T15:44:38;100808.97;;;14.59;47.92
10060;BME280;5069;49.306;8.636;2023-03-20T15:47:41;100808.38;;;14.73;48.54
10060;BME280;5069;49.306;8.636;2023-03-20T15:50:51;100804.28;;;14.45;48.70
10060;BME280;5069;49.306;8.636;2023-03-20T15:53:54;100810.19;;;14.52;48.23
10060;BME280;5069;49.306;8.636;2023-03-20T15:56:57;100799.72;;;14.27;48.50
10060;BME280;5069;49.306;8.636;2023-03-20T16:00:04;100795.50;;;14.23;48.42
10060;BME280;5069;49.306;8.636;2023-03-20T16:03:12;100793.25;;;14.34;48.29
10060;BME280;5069;49.306;8.636;2023-03-20T16:06:18;100795.78;;;14.37;48.00
10060;BME280;5069;49.306;8.636;2023-03-20T16:09:21;100789.28;;;14.44;47.84
10060;BME280;5069;49.306;8.636;2023-03-20T16:12:24;100783.94;;;14.46;48.45
10060;BME280;5069;49.306;8.636;2023-03-20T16:15:28;100791.28;;;14.60;48.08
10060;BME280;5069;49.306;8.636;2023-03-20T16:18:35;100781.59;;;14.59;47.85
10060;BME280;5069;49.306;8.636;2023-03-20T16:21:39;100783.06;;;14.45;47.13
10060;BME280;5069;49.306;8.636;2023-03-20T16:24:46;100782.00;;;14.50;47.70
10060;BME280;5069;49.306;8.636;2023-03-20T16:27:49;100797.06;;;14.27;47.33
10060;BME280;5069;49.306;8.636;2023-03-20T16:30:53;100800.00;;;14.21;47.49
10060;BME280;5069;49.306;8.636;2023-03-20T16:34:03;100797.13;;;14.26;47.57
10060;BME280;5069;49.306;8.636;2023-03-20T16:37:07;100796.25;;;14.25;47.54
10060;BME280;5069;49.306;8.636;2023-03-20T16:40:34;100798.00;;;14.26;46.98
10060;BME280;5069;49.306;8.636;2023-03-20T16:43:37;100792.75;;;14.04;47.42
10060;BME280;5069;49.306;8.636;2023-03-20T16:47:17;100793.56;;;14.06;47.53
10060;BME280;5069;49.306;8.636;2023-03-20T16:50:22;100796.69;;;13.94;46.89
10060;BME280;5069;49.306;8.636;2023-03-20T16:53:39;100807.28;;;13.73;47.95
10060;BME280;5069;49.306;8.636;2023-03-20T16:56:50;100804.19;;;13.61;48.21
10060;BME280;5069;49.306;8.636;2023-03-20T16:59:55;100809.06;;;13.50;48.80
10060;BME280;5069;49.306;8.636;2023-03-20T17:03:11;100802.25;;;13.67;48.71
10060;BME280;5069;49.306;8.636;2023-03-20T17:09:26;100802.50;;;13.60;48.63
10060;BME280;5069;49.306;8.636;2023-03-20T17:12:30;100806.84;;;13.61;49.04
10060;BME280;5069;49.306;8.636;2023-03-20T17:15:32;100812.69;;;13.48;49.30
10060;BME280;5069;49.306;8.636;2023-03-20T17:18:34;100813.13;;;13.37;49.59
10060;BME280;5069;49.306;8.636;2023-03-20T17:21:36;100815.53;;;13.43;49.32
10060;BME280;5069;49.306;8.636;2023-03-20T17:24:38;100816.69;;;13.36;49.49
10060;BME280;5069;49.306;8.636;2023-03-20T17:27:40;100826.13;;;13.20;49.59
10060;BME280;5069;49.306;8.636;2023-03-20T17:30:41;100825.53;;;13.12;49.96
10060;BME280;5069;49.306;8.636;2023-03-20T17:33:44;100829.00;;;13.14;49.96
10060;BME280;5069;49.306;8.636;2023-03-20T17:36:46;100826.41;;;13.12;49.91
10060;BME280;5069;49.306;8.636;2023-03-20T17:39:48;100827.47;;;13.07;50.17
10060;BME280;5069;49.306;8.636;2023-03-20T17:42:50;100837.22;;;13.05;50.29
10060;BME280;5069;49.306;8.636;2023-03-20T17:45:51;100831.03;;;13.06;50.54